createdAt,value
2018-01-31T01:53:39.768Z,99.90
2018-01-31T01:56:07.323Z,99.90
2018-01-31T01:58:35.066Z,99.90
2018-01-31T02:01:02.627Z,99.90
2018-01-31T02:03:30.237Z,99.90
2018-01-31T02:05:58.707Z,99.90
2018-01-31T02:08:26.267Z,99.90
2018-01-31T02:10:54.657Z,99.90
2018-01-31T02:13:23.046Z,99.90
2018-01-31T02:15:50.617Z,99.90
2018-01-31T02:18:18.165Z,99.90
2018-01-31T02:20:45.735Z,99.90
2018-01-31T02:23:13.333Z,99.90
2018-01-31T02:25:40.891Z,99.90
2018-01-31T02:28:08.462Z,99.90
2018-01-31T02:30:36.047Z,99.90
2018-01-31T02:33:04.386Z,99.90
2018-01-31T02:35:31.943Z,99.90
2018-01-31T02:37:59.528Z,99.90
2018-01-31T02:40:27.857Z,99.90
2018-01-31T02:42:55.449Z,99.90
2018-01-31T02:45:23.126Z,99.90
2018-01-31T02:47:51.478Z,99.90
2018-01-31T02:50:19.063Z,99.90
2018-01-31T02:52:47.421Z,99.90
2018-01-31T02:55:15.099Z,99.90
2018-01-31T02:57:43.659Z,99.90
2018-01-31T03:00:11.229Z,99.90
2018-01-31T03:02:39.565Z,99.90
2018-01-31T03:05:07.135Z,99.90
2018-01-31T03:07:34.921Z,99.90
2018-01-31T03:10:03.261Z,99.90
2018-01-31T03:12:30.833Z,99.90
2018-01-31T03:14:58.427Z,99.90
2018-01-31T03:17:26.847Z,99.90
2018-01-31T03:19:54.401Z,99.90
2018-01-31T03:22:22.008Z,99.90
2018-01-31T03:24:49.582Z,99.90
2018-01-31T03:27:17.921Z,99.90
2018-01-31T03:29:45.501Z,99.90
2018-01-31T03:32:13.061Z,99.90
2018-01-31T03:34:40.619Z,99.90
2018-01-31T03:37:08.285Z,99.90
2018-01-31T03:39:36.605Z,99.90
2018-01-31T03:42:04.222Z,99.90
2018-01-31T03:44:32.551Z,99.90
2018-01-31T03:47:00.122Z,99.90
2018-01-31T03:49:27.702Z,99.90
2018-01-31T03:51:55.350Z,99.90
2018-01-31T03:54:22.922Z,99.90
2018-01-31T03:56:50.507Z,99.90
2018-01-31T03:59:18.124Z,99.90
2018-01-31T04:01:45.709Z,99.90
2018-01-31T04:04:14.094Z,99.90
2018-01-31T04:06:42.454Z,99.90
2018-01-31T04:09:10.066Z,99.90
2018-01-31T04:11:37.658Z,99.90
2018-01-31T04:14:05.330Z,99.90
2018-01-31T04:16:32.991Z,99.90
2018-01-31T04:19:00.559Z,99.90
2018-01-31T04:21:28.902Z,99.90
2018-01-31T04:23:56.475Z,99.90
2018-01-31T04:26:24.052Z,99.90
2018-01-31T04:28:52.378Z,99.90
2018-01-31T04:31:19.927Z,99.90
2018-01-31T04:33:47.511Z,99.90
2018-01-31T04:36:15.069Z,99.90
2018-01-31T04:38:42.628Z,99.90
2018-01-31T04:41:10.411Z,99.90
2018-01-31T04:43:38.081Z,99.90
2018-01-31T04:46:06.400Z,99.90
2018-01-31T04:48:33.984Z,99.90
2018-01-31T04:51:01.552Z,99.90
2018-01-31T04:53:29.225Z,99.90
2018-01-31T04:55:56.798Z,99.90
2018-01-31T04:58:25.177Z,99.90
2018-01-31T05:00:53.499Z,99.90
2018-01-31T05:03:21.092Z,99.90
2018-01-31T05:05:48.757Z,99.90
2018-01-31T05:08:16.430Z,99.90
2018-01-31T05:10:44.775Z,99.90
2018-01-31T05:13:12.337Z,99.90
2018-01-31T05:15:40.016Z,99.90
2018-01-31T05:18:07.661Z,99.90
2018-01-31T05:20:35.284Z,99.90
2018-01-31T05:23:02.831Z,99.90
2018-01-31T05:25:30.420Z,99.90
2018-01-31T05:27:58.013Z,99.90
2018-01-31T05:30:26.356Z,99.90
2018-01-31T05:32:53.909Z,99.90
2018-01-31T05:35:21.483Z,99.90
2018-01-31T05:37:49.057Z,99.90
2018-01-31T05:40:16.623Z,99.90
2018-01-31T05:42:44.980Z,99.90
2018-01-31T05:45:12.572Z,99.90
2018-01-31T05:47:40.916Z,99.90
2018-01-31T05:50:08.496Z,99.90
2018-01-31T05:52:36.853Z,99.90
2018-01-31T05:55:04.473Z,99.90
2018-01-31T05:57:32.034Z,99.90
2018-01-31T05:59:59.611Z,99.90
2018-01-31T06:02:37.268Z,99.90
2018-01-31T06:05:04.841Z,99.90
2018-01-31T06:07:32.444Z,99.90
2018-01-31T06:10:00.091Z,99.90
2018-01-31T06:12:27.659Z,99.90
2018-01-31T06:14:55.335Z,99.90
2018-01-31T06:17:23.664Z,99.90
2018-01-31T06:19:51.303Z,99.90
2018-01-31T06:22:18.880Z,99.90
2018-01-31T06:24:46.430Z,99.90
2018-01-31T06:27:14.022Z,99.90
2018-01-31T06:29:41.587Z,99.90
2018-01-31T06:32:09.618Z,99.90
2018-01-31T06:34:37.184Z,99.90
2018-01-31T06:37:04.765Z,99.90
2018-01-31T06:39:32.364Z,99.90
2018-01-31T06:41:59.919Z,99.90
2018-01-31T06:44:28.241Z,99.90
2018-01-31T06:46:55.834Z,99.90
2018-01-31T06:49:23.458Z,99.90
2018-01-31T06:51:51.083Z,99.90
2018-01-31T06:54:18.766Z,99.90
2018-01-31T06:56:46.379Z,99.90
2018-01-31T06:59:14.755Z,99.90
2018-01-31T07:01:43.142Z,99.90
2018-01-31T07:04:11.481Z,99.90
2018-01-31T07:06:39.139Z,99.90
2018-01-31T07:09:06.880Z,99.90
2018-01-31T07:11:34.431Z,99.90
2018-01-31T07:14:01.990Z,99.90
2018-01-31T07:16:29.551Z,99.90
2018-01-31T07:18:57.211Z,99.90
2018-01-31T07:21:24.830Z,99.90
2018-01-31T07:23:53.203Z,99.90
2018-01-31T07:26:21.577Z,99.90
2018-01-31T07:28:49.968Z,99.90
2018-01-31T07:31:18.293Z,99.90
2018-01-31T07:33:45.862Z,99.90
2018-01-31T07:36:13.447Z,99.90
2018-01-31T07:38:41.784Z,99.90
2018-01-31T07:41:09.351Z,99.90
2018-01-31T07:43:36.908Z,99.90
2018-01-31T07:46:04.598Z,99.90
2018-01-31T07:48:32.985Z,99.90
2018-01-31T07:51:00.624Z,99.90
2018-01-31T07:53:28.210Z,99.90
2018-01-31T07:55:56.537Z,99.90
2018-01-31T07:58:24.105Z,99.90
2018-01-31T08:00:51.696Z,99.90
2018-01-31T08:03:20.030Z,99.90
2018-01-31T08:05:47.611Z,99.90
2018-01-31T08:08:15.229Z,99.90
2018-01-31T08:10:42.814Z,99.90
2018-01-31T08:13:10.422Z,99.90
2018-01-31T08:15:38.081Z,99.30
2018-01-31T08:18:05.767Z,96.40
2018-01-31T08:20:33.380Z,96.60
2018-01-31T08:23:01.730Z,94.90
2018-01-31T08:25:29.398Z,95.00
2018-01-31T08:27:58.067Z,95.10
2018-01-31T08:30:25.661Z,96.40
2018-01-31T08:32:54.030Z,95.50
2018-01-31T08:35:21.615Z,95.50
2018-01-31T08:37:49.176Z,94.10
2018-01-31T08:40:16.774Z,95.50
2018-01-31T08:42:44.336Z,95.90
2018-01-31T08:45:11.912Z,96.40
2018-01-31T08:47:39.507Z,96.00
2018-01-31T08:50:07.098Z,95.00
2018-01-31T08:52:34.683Z,94.70
2018-01-31T08:55:03.128Z,95.00
2018-01-31T08:57:30.721Z,95.10
2018-01-31T08:59:58.436Z,95.20
2018-01-31T09:02:26.021Z,95.70
2018-01-31T09:04:53.592Z,96.40
2018-01-31T09:07:21.156Z,96.50
2018-01-31T09:09:48.709Z,96.40
2018-01-31T09:12:16.383Z,96.50
2018-01-31T09:14:44.727Z,95.90
2018-01-31T09:17:12.306Z,95.90
2018-01-31T09:19:39.880Z,96.10
2018-01-31T09:22:07.462Z,95.60
2018-01-31T09:24:35.801Z,94.90
2018-01-31T09:27:03.375Z,95.10
2018-01-31T09:29:31.031Z,94.10
2018-01-31T09:31:59.374Z,95.40
2018-01-31T09:34:27.024Z,95.40
2018-01-31T09:36:54.684Z,97.10
2018-01-31T09:39:22.252Z,97.40
2018-01-31T09:41:49.831Z,97.40
2018-01-31T09:44:17.420Z,96.90
2018-01-31T09:46:45.765Z,96.20
2018-01-31T09:49:13.355Z,96.20
2018-01-31T09:51:41.692Z,94.50
2018-01-31T09:54:09.329Z,94.50
2018-01-31T09:56:36.923Z,94.50
2018-01-31T09:59:04.495Z,93.90
2018-01-31T10:01:32.902Z,93.90
2018-01-31T10:04:00.518Z,93.90
2018-01-31T10:06:28.097Z,92.10
2018-01-31T10:08:56.449Z,88.30
2018-01-31T10:11:24.105Z,88.20
2018-01-31T10:13:51.801Z,85.10
2018-01-31T10:16:19.384Z,86.10
2018-01-31T10:18:46.947Z,85.70
2018-01-31T10:21:14.614Z,84.60
2018-01-31T10:23:43.049Z,84.80
2018-01-31T10:26:11.408Z,85.90
2018-01-31T10:28:39.079Z,85.90
2018-01-31T10:31:06.753Z,87.00
2018-01-31T10:33:35.116Z,84.30
2018-01-31T10:36:02.688Z,84.20
2018-01-31T10:38:31.045Z,80.30
2018-01-31T10:40:58.705Z,80.20
2018-01-31T10:43:26.470Z,78.30
2018-01-31T10:45:54.857Z,78.60
2018-01-31T10:48:23.227Z,80.30
2018-01-31T10:50:50.838Z,80.20
2018-01-31T10:53:18.533Z,81.20
2018-01-31T10:58:13.926Z,80.80
2018-01-31T11:00:41.522Z,79.70
2018-01-31T11:03:09.189Z,79.60
2018-01-31T11:05:36.850Z,76.30
2018-01-31T11:08:04.503Z,75.40
2018-01-31T11:10:32.095Z,73.80
2018-01-31T11:13:09.592Z,77.50
2018-01-31T11:15:37.170Z,78.40
2018-01-31T11:18:04.763Z,80.20
2018-01-31T11:20:32.317Z,80.40
2018-01-31T11:22:59.919Z,76.90
2018-01-31T11:25:27.530Z,71.80
2018-01-31T11:27:55.135Z,69.60
2018-01-31T11:30:23.149Z,63.80
2018-01-31T11:32:50.764Z,62.10
2018-01-31T11:35:18.327Z,59.80
2018-01-31T11:37:45.894Z,57.20
2018-01-31T11:40:13.492Z,57.40
2018-01-31T11:42:41.102Z,56.30
2018-01-31T11:45:08.731Z,55.60
2018-01-31T11:47:36.358Z,55.40
2018-01-31T11:50:03.917Z,54.20
2018-01-31T11:52:31.484Z,56.30
2018-01-31T11:54:59.070Z,54.90
2018-01-31T11:57:27.419Z,54.20
2018-01-31T11:59:55.114Z,54.10
2018-01-31T12:02:23.562Z,56.40
2018-01-31T12:04:51.241Z,56.30
2018-01-31T12:07:18.884Z,57.90
2018-01-31T12:09:46.584Z,58.20
2018-01-31T12:15:22.805Z,59.10
2018-01-31T12:17:50.396Z,58.70
2018-01-31T12:20:29.914Z,58.20
2018-01-31T12:23:09.350Z,58.40
2018-01-31T12:25:48.709Z,56.00
2018-01-31T12:28:27.951Z,55.20
2018-01-31T12:31:09.169Z,53.80
2018-01-31T12:33:48.743Z,53.60
2018-01-31T12:39:21.678Z,57.90
2018-01-31T12:41:49.529Z,58.70
2018-01-31T12:44:17.520Z,59.10
2018-01-31T12:46:56.928Z,59.00
2018-01-31T12:49:37.109Z,61.00
2018-01-31T12:55:39.746Z,64.60
2018-01-31T12:58:19.229Z,64.50
2018-01-31T13:04:05.424Z,67.40
2018-01-31T13:09:47.470Z,68.70
2018-01-31T13:12:26.804Z,68.10
2018-01-31T13:18:03.906Z,67.60
2018-01-31T13:20:43.391Z,69.20
2018-01-31T13:23:10.988Z,70.30
2018-01-31T13:26:02.631Z,72.60
2018-01-31T13:28:44.040Z,72.60
2018-01-31T13:31:24.415Z,73.40
2018-01-31T13:34:03.863Z,72.90
2018-01-31T13:36:43.305Z,74.80
2018-01-31T13:39:22.742Z,74.80
2018-01-31T13:42:02.112Z,74.10
2018-01-31T13:44:41.480Z,75.10
2018-01-31T13:47:20.955Z,73.90
2018-01-31T13:50:01.170Z,75.10
2018-01-31T13:52:44.229Z,75.10
2018-01-31T13:55:24.609Z,74.70
2018-01-31T14:01:22.410Z,74.70
2018-01-31T14:04:14.610Z,74.50
2018-01-31T14:06:54.841Z,74.60
2018-01-31T14:09:34.249Z,74.60
2018-01-31T14:12:13.567Z,74.00
2018-01-31T14:14:52.937Z,74.20
2018-01-31T14:17:32.299Z,76.80
2018-01-31T14:20:12.443Z,78.70
2018-01-31T14:22:51.862Z,78.70
2018-01-31T14:25:31.178Z,77.10
2018-01-31T14:31:17.498Z,76.70
2018-01-31T14:33:56.822Z,78.20
2018-01-31T14:36:23.866Z,79.20
2018-01-31T14:38:51.015Z,80.10
2018-01-31T14:41:18.070Z,79.60
2018-01-31T14:43:45.163Z,78.70
2018-01-31T14:46:12.266Z,77.80
2018-01-31T14:48:39.315Z,81.80
2018-01-31T14:51:06.394Z,81.40
2018-01-31T14:53:33.454Z,79.50
2018-01-31T14:56:01.282Z,80.30
2018-01-31T14:58:28.383Z,80.30
2018-01-31T15:00:55.559Z,79.80
2018-01-31T15:03:22.956Z,81.10
2018-01-31T15:05:50.041Z,81.90
2018-01-31T15:08:17.119Z,80.70
2018-01-31T15:10:44.295Z,81.70
2018-01-31T15:13:11.353Z,81.30
2018-01-31T15:15:39.194Z,82.70
2018-01-31T15:18:06.344Z,82.60
2018-01-31T15:20:33.410Z,82.50
2018-01-31T15:23:01.259Z,82.50
2018-01-31T15:25:29.119Z,82.70
2018-01-31T15:27:56.192Z,82.60
2018-01-31T15:30:24.046Z,84.20
2018-01-31T15:32:51.114Z,84.10
2018-01-31T15:35:18.209Z,84.10
2018-01-31T15:37:45.287Z,86.60
2018-01-31T15:40:12.362Z,85.00
2018-01-31T15:42:39.452Z,86.50
2018-01-31T15:45:06.528Z,87.90
2018-01-31T15:47:33.677Z,89.80
2018-01-31T15:50:00.758Z,90.00
2018-01-31T15:52:27.835Z,89.90
2018-01-31T15:54:54.935Z,90.50
2018-01-31T15:57:22.807Z,91.50
2018-01-31T15:59:49.881Z,91.40
2018-01-31T16:02:16.967Z,90.70
2018-01-31T16:04:44.080Z,90.50
2018-01-31T16:07:11.166Z,91.00
2018-01-31T16:09:38.267Z,91.60
2018-01-31T16:12:05.327Z,92.40
2018-01-31T16:14:32.411Z,92.60
2018-01-31T16:17:00.750Z,92.20
2018-01-31T16:19:40.246Z,92.20
2018-01-31T16:22:08.624Z,93.60
2018-01-31T16:24:36.206Z,93.60
2018-01-31T16:27:03.792Z,94.00
2018-01-31T16:29:47.036Z,94.80
2018-01-31T16:32:27.299Z,94.90
2018-01-31T16:34:55.803Z,95.00
2018-01-31T16:37:23.496Z,95.00
2018-01-31T16:39:51.062Z,93.80
2018-01-31T16:42:18.656Z,94.90
2018-01-31T16:44:47.013Z,94.20
2018-01-31T16:47:14.575Z,94.10
2018-01-31T16:49:42.153Z,96.50
2018-01-31T16:52:10.491Z,94.70
2018-01-31T16:54:38.057Z,94.60
2018-01-31T16:57:05.647Z,95.20
2018-01-31T16:59:34.127Z,94.00
2018-01-31T17:02:02.549Z,93.40
2018-01-31T17:04:30.115Z,93.40
2018-01-31T17:06:57.718Z,92.90
2018-01-31T17:09:26.101Z,92.50
2018-01-31T17:11:54.435Z,91.70
2018-01-31T17:14:22.226Z,91.80
2018-01-31T17:16:49.796Z,92.50
2018-01-31T17:19:18.136Z,91.80
2018-01-31T17:21:45.725Z,91.70
2018-01-31T17:24:14.077Z,91.20
2018-01-31T17:26:41.676Z,91.10
2018-01-31T17:29:10.018Z,91.50
2018-01-31T17:31:37.576Z,91.50
2018-01-31T17:34:05.141Z,91.30
2018-01-31T17:36:32.723Z,91.60
2018-01-31T17:39:01.080Z,91.50
2018-01-31T17:41:28.666Z,91.50
2018-01-31T17:43:57.016Z,91.60
2018-01-31T17:46:24.579Z,91.50
2018-01-31T17:48:52.142Z,91.60
2018-01-31T17:51:20.513Z,91.60
2018-01-31T17:53:48.083Z,91.60
2018-01-31T17:56:16.459Z,91.90
2018-01-31T17:58:44.816Z,92.10
2018-01-31T18:01:12.393Z,92.00
2018-01-31T18:03:40.761Z,91.90
2018-01-31T18:06:09.127Z,92.70
2018-01-31T18:08:36.686Z,92.70
2018-01-31T18:11:04.254Z,92.10
2018-01-31T18:13:31.819Z,92.40
2018-01-31T18:16:00.162Z,93.50
2018-01-31T18:18:27.709Z,93.50
2018-01-31T18:20:55.281Z,92.30
2018-01-31T18:23:22.949Z,91.90
2018-01-31T18:25:50.505Z,92.20
2018-01-31T18:28:18.159Z,91.60
2018-01-31T18:30:45.735Z,91.20
2018-01-31T18:33:13.292Z,90.80
2018-01-31T18:35:40.864Z,90.80
2018-01-31T18:38:09.180Z,89.40
2018-01-31T18:40:36.746Z,89.30
2018-01-31T18:43:04.297Z,90.60
2018-01-31T18:45:31.948Z,89.00
2018-01-31T18:47:59.502Z,89.00
2018-01-31T18:50:27.094Z,87.90
2018-01-31T18:52:54.654Z,87.70
2018-01-31T18:55:22.241Z,90.00
2018-01-31T18:57:49.902Z,90.20
2018-01-31T19:00:18.282Z,90.10
2018-01-31T19:02:46.807Z,89.50
2018-01-31T19:05:14.394Z,89.50
2018-01-31T19:07:42.055Z,88.70
2018-01-31T19:10:09.720Z,90.90
2018-01-31T19:12:37.287Z,90.20
2018-01-31T19:15:04.902Z,90.60
2018-01-31T19:17:32.529Z,90.20
2018-01-31T19:20:00.891Z,90.40
2018-01-31T19:22:29.243Z,90.90
2018-01-31T19:24:56.798Z,90.90
2018-01-31T19:27:24.538Z,92.50
2018-01-31T19:29:52.179Z,92.90
2018-01-31T19:32:31.095Z,93.80
2018-01-31T19:34:58.703Z,92.60
2018-01-31T19:37:26.431Z,93.90
2018-01-31T19:39:54.012Z,94.30
2018-01-31T19:42:21.579Z,94.00
2018-01-31T19:44:49.146Z,95.10
2018-01-31T19:47:16.710Z,93.90
2018-01-31T19:49:44.288Z,93.50
2018-01-31T19:52:12.692Z,93.60
2018-01-31T19:54:40.275Z,93.60
2018-01-31T19:57:07.856Z,92.90
2018-01-31T19:59:46.044Z,92.70
2018-01-31T20:02:15.157Z,93.80
2018-01-31T20:04:42.718Z,93.80
2018-01-31T20:07:10.324Z,91.90
2018-01-31T20:09:37.882Z,93.60
2018-01-31T20:12:05.560Z,92.50
2018-01-31T20:14:33.989Z,94.30
2018-01-31T20:17:01.649Z,94.80
2018-01-31T20:19:30.187Z,92.60
2018-01-31T20:21:57.883Z,92.70
2018-01-31T20:24:25.458Z,93.40
2018-01-31T20:26:53.840Z,92.50
2018-01-31T20:29:22.195Z,94.40
2018-01-31T20:31:49.758Z,94.40
2018-01-31T20:34:17.474Z,93.20
2018-01-31T20:36:45.084Z,93.40
2018-01-31T20:39:13.516Z,93.90
2018-01-31T20:41:41.146Z,93.90
2018-01-31T20:44:08.719Z,94.30
2018-01-31T20:46:36.268Z,94.00
2018-01-31T20:49:03.906Z,93.50
2018-01-31T20:51:32.226Z,91.50
2018-01-31T20:53:59.819Z,92.00
2018-01-31T20:56:27.377Z,91.00
2018-01-31T20:58:54.947Z,90.80
2018-01-31T21:01:23.278Z,90.80
2018-01-31T21:03:50.987Z,90.80
2018-01-31T21:06:19.349Z,90.70
2018-01-31T21:08:46.923Z,90.60
2018-01-31T21:11:15.349Z,90.20
2018-01-31T21:13:42.916Z,90.20
2018-01-31T21:16:10.488Z,90.30
2018-01-31T21:18:38.117Z,90.30
2018-01-31T21:21:05.682Z,90.70
2018-01-31T21:23:33.300Z,90.90
2018-01-31T21:26:00.901Z,90.80
2018-01-31T21:28:28.492Z,91.30
2018-01-31T21:30:56.168Z,91.20
2018-01-31T21:33:23.827Z,91.30
2018-01-31T21:35:51.603Z,91.50
2018-01-31T21:38:19.953Z,92.10
2018-01-31T21:40:47.516Z,92.60
2018-01-31T21:43:15.092Z,92.90
2018-01-31T21:45:43.439Z,93.10
2018-01-31T21:48:11.119Z,93.10
2018-01-31T21:50:38.683Z,93.50
2018-01-31T21:53:06.262Z,93.70
2018-01-31T21:55:33.829Z,93.70
2018-01-31T21:58:01.407Z,94.00
2018-01-31T22:00:29.047Z,94.10
2018-01-31T22:02:56.682Z,94.20
2018-01-31T22:05:25.019Z,95.00
2018-01-31T22:07:52.577Z,94.90
2018-01-31T22:10:20.160Z,95.30
2018-01-31T22:12:48.525Z,95.30
2018-01-31T22:15:16.208Z,95.40
2018-01-31T22:17:44.555Z,95.70
2018-01-31T22:20:12.166Z,95.70
2018-01-31T22:22:39.723Z,95.80
2018-01-31T22:25:07.270Z,95.90
2018-01-31T22:27:35.610Z,95.90
2018-01-31T22:30:03.281Z,95.90
2018-01-31T22:32:30.869Z,95.90
2018-01-31T22:34:59.195Z,96.40
2018-01-31T22:37:26.804Z,96.50
2018-01-31T22:39:55.135Z,97.10
2018-01-31T22:42:22.685Z,97.10
2018-01-31T22:44:50.275Z,97.20
2018-01-31T22:47:17.870Z,97.50
2018-01-31T22:49:45.429Z,97.50
2018-01-31T22:52:13.754Z,97.90
2018-01-31T22:54:41.369Z,97.90
2018-01-31T22:57:08.971Z,98.20
2018-01-31T22:59:36.563Z,98.30
2018-01-31T23:02:05.035Z,98.50
2018-01-31T23:04:33.378Z,98.60
2018-01-31T23:07:00.974Z,98.60
2018-01-31T23:09:29.336Z,98.60
2018-01-31T23:11:56.911Z,98.60
2018-01-31T23:14:30.940Z,99.20
2018-01-31T23:16:58.562Z,99.20
2018-01-31T23:19:26.224Z,99.00
2018-01-31T23:21:53.787Z,99.10
2018-01-31T23:24:22.173Z,99.30
2018-01-31T23:26:50.511Z,99.40
2018-01-31T23:29:18.100Z,99.40
2018-01-31T23:31:46.464Z,99.40
2018-01-31T23:34:14.840Z,99.30
2018-01-31T23:36:42.520Z,99.30
2018-01-31T23:39:10.904Z,99.80
2018-01-31T23:41:39.254Z,99.70
2018-01-31T23:44:06.819Z,99.70
2018-01-31T23:46:34.481Z,99.70
2018-01-31T23:49:02.060Z,99.90
2018-01-31T23:51:30.517Z,99.90
2018-01-31T23:53:58.100Z,99.90
2018-01-31T23:56:25.660Z,99.50
2018-01-31T23:58:54.122Z,99.70
